Jefferson Township, New Jersey
Current Conditions -  °F | °C
As of 6:53 AM on Sunday 21 Dec 2014 (Local Time) from KFWN Reporting Station
Overcast Overcast  
Wind Chill: 28°   Ceiling: 1400
Heat Index: 28°   Visibility: 10mi
Dew Point: 25°   Wind: 3mph
Humidity: 88%   Direction: 50°NE
Pressure: 30.29"   Gusts: NA
Location:  41.0321°N, 74.5162°W
Report Text: KFWN 211153Z AUTO 05003KT 10SM SCT008 OVC014 M02/M04 A3029 RMK AO2 SLP261 I6000 T10221039 11017 21022 53005
Loading
Personal Weather Stations






























Interactive Weather Map New forecast layout! Learn more

10-Day Weather Forecast

Advertisements
Track Severe Weather on mobile